KSEE/SEE METAR and TAF weather

Enter ICAO airport designator
Station Type Date Time Source
KSEE METAR 2020/12/01 20:55 UTC NOAA

KSEE 012055Z 30005KT 10SM SKC 26/M05 A3001


Station Type Date Time Source
KSEE Decoded METAR 2020/12/01 20:55 UTC NOAA

San Diego/El Cajon, Gillespie Field Airport, CA, United States (KSEE) 32-49-34N 116-58-20W
Dec 01, 2020 - 03:55 PM EST / 2020.12.01 2055 UTC
Wind: from the WNW (300 degrees) at 6 MPH (5 KT):0
Visibility: 10 mile(s):0
Sky conditions: clear
Temperature: 78 F (26 C)
Dew Point: 23 F (-5 C)
Relative Humidity: 12%
Pressure (altimeter): 30.01 in. Hg (1016 hPa)
ob: KSEE 012055Z 30005KT 10SM SKC 26/M05 A3001
cycle: 21

Station Type Date Time Source
KSEE TAF UTC NOAA

Error!

Example: see airport list